createdAt,value
2022-09-06T00:03:34.133Z,6.93
2022-09-06T00:08:37.054Z,7.18
2022-09-06T00:13:39.623Z,5.65
2022-09-06T00:18:43.386Z,4.78
2022-09-06T00:23:45.947Z,4.10
2022-09-06T00:28:48.791Z,3.72
2022-09-06T00:33:53.446Z,6.43
2022-09-06T00:38:57.700Z,4.50
2022-09-06T00:44:00.340Z,5.63
2022-09-06T00:49:08.421Z,12.82
2022-09-06T00:54:11.107Z,4.45
2022-09-06T00:59:15.838Z,3.33
2022-09-06T01:04:19.987Z,8.52
2022-09-06T01:09:34.230Z,1.17
2022-09-06T01:15:06.072Z,8.48
2022-09-06T01:20:27.003Z,6.70
2022-09-06T01:26:07.862Z,6.50
2022-09-06T01:31:40.624Z,15.40
2022-09-06T01:37:08.831Z,10.50
2022-09-06T01:42:21.480Z,7.78
2022-09-06T01:47:48.432Z,6.45
2022-09-06T01:53:03.277Z,8.98
2022-09-06T01:58:08.429Z,4.25
2022-09-06T02:03:35.009Z,6.07
2022-09-06T02:08:46.185Z,7.03
2022-09-06T02:13:52.976Z,6.07
2022-09-06T02:19:04.781Z,4.60
2022-09-06T02:24:12.191Z,5.25
2022-09-06T02:29:16.547Z,7.93
2022-09-06T02:34:20.233Z,5.72
2022-09-06T02:39:23.026Z,6.03
2022-09-06T02:44:26.071Z,9.07
2022-09-06T02:49:28.918Z,8.00
2022-09-06T02:54:31.423Z,9.65
2022-09-06T02:59:33.842Z,11.63
2022-09-06T03:04:36.132Z,16.73
2022-09-06T03:09:38.422Z,27.15
2022-09-06T03:14:41.675Z,10.63
2022-09-06T03:19:44.075Z,6.82
2022-09-06T03:24:46.786Z,13.30
2022-09-06T03:29:49.385Z,8.95
2022-09-06T03:34:51.776Z,9.85
2022-09-06T03:39:54.798Z,14.18
2022-09-06T03:45:06.661Z,10.10
2022-09-06T03:50:11.116Z,6.45
2022-09-06T04:00:41.174Z,13.65
2022-09-06T04:05:48.394Z,12.40
2022-09-06T04:10:57.951Z,9.75
2022-09-06T04:16:06.366Z,14.40
2022-09-06T04:21:16.903Z,9.20
2022-09-06T04:26:24.333Z,5.80
2022-09-06T04:31:30.324Z,9.07
2022-09-06T04:36:37.485Z,8.70
2022-09-06T04:41:40.528Z,21.20
2022-09-06T04:46:46.350Z,14.25
2022-09-06T04:51:48.842Z,11.63
2022-09-06T04:56:55.181Z,10.15
2022-09-06T05:01:58.119Z,15.82
2022-09-06T05:07:06.658Z,15.48
2022-09-06T05:12:37.373Z,18.63
2022-09-06T05:17:43.526Z,8.32
2022-09-06T05:22:55.036Z,7.70
2022-09-06T05:28:08.153Z,10.67
2022-09-06T05:33:13.259Z,10.15
2022-09-06T05:38:17.489Z,9.73
2022-09-06T05:43:21.609Z,13.15
2022-09-06T05:48:38.506Z,12.27
2022-09-06T05:53:44.055Z,9.73
2022-09-06T05:59:12.518Z,19.60
2022-09-06T06:04:25.498Z,16.27
2022-09-06T06:09:29.761Z,23.05
2022-09-06T06:14:35.808Z,18.83
2022-09-06T06:19:53.329Z,10.85
2022-09-06T06:25:16.312Z,13.52
2022-09-06T06:36:05.310Z,10.70
2022-09-06T06:41:22.964Z,13.80
2022-09-06T06:46:39.012Z,10.80
2022-09-06T06:51:45.461Z,11.93
2022-09-06T06:56:58.603Z,8.90
2022-09-06T07:02:03.688Z,6.20
2022-09-06T07:07:36.675Z,9.10
2022-09-06T07:12:42.406Z,11.90
2022-09-06T07:17:46.969Z,10.38
2022-09-06T07:28:25.368Z,7.10
2022-09-06T07:33:28.479Z,10.50
2022-09-06T07:38:31.557Z,6.28
2022-09-06T07:43:36.806Z,8.30
2022-09-06T07:48:42.435Z,7.15
2022-09-06T07:54:07.001Z,7.68
2022-09-06T07:59:23.700Z,6.10
2022-09-06T08:10:02.744Z,10.70
2022-09-06T08:15:05.744Z,5.15
2022-09-06T08:20:09.298Z,10.43
2022-09-06T08:25:13.314Z,9.85
2022-09-06T08:30:16.067Z,5.22
2022-09-06T08:35:18.501Z,9.95
2022-09-06T08:40:24.109Z,8.55
2022-09-06T08:45:31.023Z,22.92
2022-09-06T08:50:41.883Z,8.88
2022-09-06T08:56:24.960Z,16.40
2022-09-06T09:01:42.193Z,12.13
2022-09-06T09:06:52.214Z,9.25
2022-09-06T09:12:02.346Z,7.85
2022-09-06T09:17:42.077Z,14.10
2022-09-06T09:22:47.849Z,12.15
2022-09-06T09:28:17.977Z,12.90
2022-09-06T09:33:34.318Z,14.85
2022-09-06T09:38:55.089Z,15.60
2022-09-06T09:44:11.464Z,16.17
2022-09-06T09:49:24.585Z,12.38
2022-09-06T09:54:56.172Z,12.68
2022-09-06T10:00:51.620Z,11.15
2022-09-06T10:06:02.526Z,7.85
2022-09-06T10:11:07.541Z,13.00
2022-09-06T10:16:11.286Z,7.75
2022-09-06T10:21:22.397Z,4.90
2022-09-06T10:26:35.010Z,6.53
2022-09-06T10:31:56.801Z,7.90
2022-09-06T10:37:46.772Z,6.75
2022-09-06T10:42:56.294Z,4.63
2022-09-06T10:48:55.346Z,11.93
2022-09-06T10:54:08.715Z,7.70
2022-09-06T10:59:36.529Z,7.75
2022-09-06T11:10:29.805Z,8.60
2022-09-06T11:15:58.771Z,9.60
2022-09-06T11:21:39.773Z,7.30
2022-09-06T11:27:10.518Z,9.23
2022-09-06T11:32:52.663Z,11.07
2022-09-06T11:38:32.775Z,6.28
2022-09-06T11:43:54.796Z,6.22
2022-09-06T11:49:00.964Z,4.43
2022-09-06T11:54:29.082Z,6.85
2022-09-06T12:05:26.667Z,11.02
2022-09-06T12:10:46.812Z,7.88
2022-09-06T12:16:01.274Z,7.75
2022-09-06T12:21:08.267Z,8.85
2022-09-06T12:26:40.083Z,12.95
2022-09-06T12:32:08.682Z,8.38
2022-09-06T12:38:07.512Z,9.50
2022-09-06T12:43:35.684Z,7.68
2022-09-06T12:48:54.344Z,11.65
2022-09-06T12:54:21.311Z,10.75
2022-09-06T13:05:05.741Z,8.15
2022-09-06T13:10:17.040Z,11.00
2022-09-06T13:16:00.653Z,9.05
2022-09-06T13:21:16.050Z,16.88
2022-09-06T13:32:03.686Z,7.87
2022-09-06T13:42:53.026Z,7.95
2022-09-06T13:48:13.213Z,9.65
2022-09-06T13:59:20.994Z,10.68
2022-09-06T14:04:31.036Z,12.30
2022-09-06T14:09:46.677Z,12.73
2022-09-06T14:14:54.431Z,11.18
2022-09-06T14:20:00.853Z,7.57
2022-09-06T14:25:07.524Z,13.52
2022-09-06T14:30:12.688Z,6.97
2022-09-06T14:35:19.252Z,9.57
2022-09-06T14:40:28.711Z,10.50
2022-09-06T14:45:40.907Z,6.00
2022-09-06T14:50:43.391Z,7.68
2022-09-06T14:56:04.528Z,11.68
2022-09-06T15:07:35.857Z,9.13
2022-09-06T15:12:55.776Z,9.57
2022-09-06T15:18:14.364Z,13.02
2022-09-06T15:28:49.420Z,8.77
2022-09-06T15:34:03.799Z,11.95
2022-09-06T15:39:22.180Z,10.38
2022-09-06T15:44:36.957Z,11.98
2022-09-06T15:49:47.782Z,7.85
2022-09-06T15:55:41.643Z,6.93
2022-09-06T16:00:54.023Z,8.23
2022-09-06T16:06:28.792Z,12.65
2022-09-06T16:11:48.481Z,7.32
2022-09-06T16:17:08.757Z,7.22
2022-09-06T16:22:28.113Z,12.60
2022-09-06T16:28:20.000Z,7.55
2022-09-06T16:33:33.170Z,10.50
2022-09-06T16:38:37.911Z,5.30
2022-09-06T16:43:52.498Z,5.93
2022-09-06T16:49:09.003Z,10.23
2022-09-06T16:54:24.066Z,10.10
2022-09-06T16:59:29.763Z,7.63
2022-09-06T17:10:23.668Z,8.40
2022-09-06T17:16:23.124Z,10.77
2022-09-06T17:27:22.536Z,8.98
2022-09-06T17:39:29.912Z,11.27
2022-09-06T17:45:30.455Z,11.65
2022-09-06T17:57:11.463Z,21.30
2022-09-06T18:02:14.211Z,10.25
2022-09-06T18:24:58.321Z,14.45
2022-09-06T18:30:33.061Z,19.45
2022-09-06T18:36:01.955Z,11.63
2022-09-06T18:41:52.149Z,34.10
2022-09-06T18:48:31.367Z,19.85
2022-09-06T18:53:59.979Z,19.08
2022-09-06T18:59:16.008Z,26.30
2022-09-06T19:04:23.735Z,20.13
2022-09-06T19:09:42.444Z,22.33
2022-09-06T19:15:41.023Z,27.10
2022-09-06T19:21:27.892Z,32.63
2022-09-06T19:26:35.356Z,33.70
2022-09-06T19:31:42.802Z,28.23
2022-09-06T19:43:56.666Z,25.60
2022-09-06T20:19:59.415Z,25.38
2022-09-06T21:02:17.978Z,29.13
2022-09-06T23:44:19.598Z,30.05
2022-09-06T23:50:05.303Z,34.03
2022-09-06T23:55:24.420Z,28.05
